createdAt,value
2022-07-29T00:02:09.056Z,90.14
2022-07-29T00:04:39.773Z,90.25
2022-07-29T00:07:10.228Z,90.62
2022-07-29T00:09:50.407Z,89.11
2022-07-29T00:12:26.996Z,89.52
2022-07-29T00:14:58.960Z,90.51
2022-07-29T00:17:29.539Z,90.73
2022-07-29T00:19:59.517Z,90.48
2022-07-29T00:22:29.775Z,90.15
2022-07-29T00:25:00.063Z,90.79
2022-07-29T00:27:30.380Z,90.48
2022-07-29T00:30:00.731Z,91.04
2022-07-29T00:32:30.928Z,91.01
2022-07-29T00:35:18.922Z,91.09
2022-07-29T00:37:49.552Z,91.72
2022-07-29T00:40:19.726Z,90.46
2022-07-29T00:42:55.407Z,93.14
2022-07-29T00:45:25.590Z,90.35
2022-07-29T00:47:55.574Z,88.46
2022-07-29T00:50:26.844Z,87.14
2022-07-29T00:52:57.601Z,88.82
2022-07-29T00:55:27.877Z,89.52
2022-07-29T00:57:59.496Z,88.52
2022-07-29T01:00:32.206Z,88.63
2022-07-29T01:03:03.125Z,89.37
2022-07-29T01:05:50.097Z,90.11
2022-07-29T01:08:22.810Z,90.22
2022-07-29T01:10:54.798Z,90.15
2022-07-29T01:13:25.191Z,89.43
2022-07-29T01:16:01.124Z,90.51
2022-07-29T01:18:40.383Z,91.20
2022-07-29T01:21:49.252Z,91.75
2022-07-29T01:24:43.503Z,91.33
2022-07-29T01:27:19.470Z,91.99
2022-07-29T01:30:02.703Z,92.41
2022-07-29T01:32:38.838Z,92.39
2022-07-29T01:35:29.338Z,92.28
2022-07-29T01:38:28.004Z,91.54
2022-07-29T01:41:11.610Z,93.77
2022-07-29T01:43:50.680Z,93.54
2022-07-29T01:46:42.737Z,92.73
2022-07-29T01:49:28.435Z,93.02
2022-07-29T01:52:08.100Z,92.92
2022-07-29T01:55:13.893Z,93.18
2022-07-29T01:57:48.797Z,93.15
2022-07-29T02:00:20.377Z,93.10
2022-07-29T02:02:52.295Z,93.66
2022-07-29T02:05:25.530Z,94.50
2022-07-29T02:07:57.005Z,94.99
2022-07-29T02:10:30.497Z,95.64
2022-07-29T02:13:02.154Z,96.27
2022-07-29T02:15:35.606Z,96.21
2022-07-29T02:18:16.052Z,97.00
2022-07-29T02:20:50.854Z,97.49
2022-07-29T02:23:26.592Z,97.24
2022-07-29T02:26:01.831Z,97.46
2022-07-29T02:28:33.962Z,97.44
2022-07-29T02:31:06.207Z,97.87
2022-07-29T02:33:36.499Z,96.48
2022-07-29T02:36:07.245Z,97.17
2022-07-29T02:38:55.491Z,98.15
2022-07-29T02:41:37.922Z,99.15
2022-07-29T02:44:22.552Z,99.99
2022-07-29T02:47:13.820Z,99.99
2022-07-29T02:49:48.738Z,99.99
2022-07-29T02:52:31.142Z,99.99
2022-07-29T02:55:24.523Z,99.99
2022-07-29T02:58:05.693Z,99.99
2022-07-29T03:00:40.922Z,99.99
2022-07-29T03:03:15.606Z,99.99
2022-07-29T03:05:45.859Z,99.99
2022-07-29T03:08:18.615Z,99.99
2022-07-29T03:10:50.342Z,99.99
2022-07-29T03:13:22.183Z,99.86
2022-07-29T03:15:52.846Z,99.99
2022-07-29T03:18:24.003Z,99.99
2022-07-29T03:20:54.971Z,99.99
2022-07-29T03:23:33.286Z,99.99
2022-07-29T03:26:07.265Z,99.99
2022-07-29T03:28:37.475Z,99.99
2022-07-29T03:31:10.287Z,99.70
2022-07-29T03:33:40.197Z,99.99
2022-07-29T03:36:11.071Z,99.99
2022-07-29T03:38:48.627Z,99.99
2022-07-29T03:41:22.308Z,99.99
2022-07-29T03:43:54.887Z,99.99
2022-07-29T03:46:28.959Z,99.99
2022-07-29T03:49:03.806Z,99.85
2022-07-29T03:51:34.771Z,99.99
2022-07-29T03:54:10.181Z,99.99
2022-07-29T03:56:49.524Z,99.99
2022-07-29T03:59:24.905Z,99.99
2022-07-29T04:01:56.382Z,99.99
2022-07-29T04:04:28.168Z,99.99
2022-07-29T04:06:59.540Z,99.99
2022-07-29T04:09:29.605Z,99.99
2022-07-29T04:12:02.967Z,99.99
2022-07-29T04:14:35.441Z,99.99
2022-07-29T04:17:07.078Z,99.99
2022-07-29T04:19:37.539Z,99.99
2022-07-29T04:22:07.543Z,99.99
2022-07-29T04:24:38.012Z,99.63
2022-07-29T04:27:08.708Z,99.99
2022-07-29T04:29:56.252Z,99.99
2022-07-29T04:32:29.055Z,99.99
2022-07-29T04:35:00.001Z,99.99
2022-07-29T04:37:31.753Z,99.99
2022-07-29T04:40:02.283Z,99.99
2022-07-29T04:42:32.669Z,99.99
2022-07-29T04:45:02.603Z,99.99
2022-07-29T04:47:33.108Z,99.99
2022-07-29T04:50:04.324Z,99.99
2022-07-29T04:52:34.593Z,99.99
2022-07-29T04:55:05.730Z,99.99
2022-07-29T04:57:36.338Z,99.99
2022-07-29T05:00:08.512Z,99.99
2022-07-29T05:02:39.435Z,99.99
2022-07-29T05:05:10.352Z,99.99
2022-07-29T05:07:40.662Z,99.99
2022-07-29T05:10:11.881Z,98.16
2022-07-29T05:12:42.524Z,97.85
2022-07-29T05:15:12.792Z,98.03
2022-07-29T05:17:42.939Z,98.27
2022-07-29T05:20:13.453Z,98.62
2022-07-29T05:22:44.044Z,97.87
2022-07-29T05:25:14.123Z,98.92
2022-07-29T05:27:44.032Z,97.80
2022-07-29T05:30:15.115Z,97.96
2022-07-29T05:32:45.266Z,98.08
2022-07-29T05:35:16.332Z,98.31
2022-07-29T05:37:46.542Z,98.65
2022-07-29T05:40:16.849Z,98.58
2022-07-29T05:42:47.458Z,99.99
2022-07-29T05:45:17.692Z,99.37
2022-07-29T05:47:47.905Z,99.99
2022-07-29T05:50:17.872Z,99.99
2022-07-29T05:52:48.506Z,99.71
2022-07-29T05:55:20.114Z,99.68
2022-07-29T05:57:50.527Z,99.99
2022-07-29T06:00:21.024Z,96.68
2022-07-29T06:02:50.884Z,97.61
2022-07-29T06:05:21.618Z,98.48
2022-07-29T06:07:52.137Z,99.09
2022-07-29T06:10:23.919Z,99.31
2022-07-29T06:12:56.421Z,97.15
2022-07-29T06:15:26.658Z,97.95
2022-07-29T06:17:59.335Z,98.70
2022-07-29T06:20:32.678Z,98.60
2022-07-29T06:23:03.540Z,97.97
2022-07-29T06:25:38.749Z,98.00
2022-07-29T06:28:09.459Z,98.42
2022-07-29T06:30:39.433Z,98.60
2022-07-29T06:33:09.556Z,98.17
2022-07-29T06:35:42.734Z,99.07
2022-07-29T06:38:31.337Z,99.70
2022-07-29T06:41:08.055Z,99.33
2022-07-29T06:43:50.337Z,98.24
2022-07-29T06:46:24.412Z,99.17
2022-07-29T06:48:55.257Z,97.51
2022-07-29T06:51:25.358Z,95.71
2022-07-29T06:53:59.843Z,96.51
2022-07-29T06:56:39.434Z,97.43
2022-07-29T06:59:12.708Z,97.18
2022-07-29T07:01:45.006Z,96.29
2022-07-29T07:04:15.778Z,97.51
2022-07-29T07:06:47.624Z,97.37
2022-07-29T07:09:18.003Z,97.00
2022-07-29T07:11:49.713Z,96.92
2022-07-29T07:14:20.992Z,96.63
2022-07-29T07:16:52.513Z,95.91
2022-07-29T07:19:23.180Z,96.18
2022-07-29T07:21:53.185Z,96.61
2022-07-29T07:24:25.978Z,96.83
2022-07-29T07:26:56.301Z,96.37
2022-07-29T07:29:26.996Z,96.76
2022-07-29T07:32:00.728Z,96.40
2022-07-29T07:34:32.341Z,96.38
2022-07-29T07:37:03.310Z,96.76
2022-07-29T07:39:33.870Z,96.96
2022-07-29T07:42:04.172Z,97.19
2022-07-29T07:44:46.301Z,97.05
2022-07-29T07:47:25.768Z,97.43
2022-07-29T07:49:58.171Z,96.78
2022-07-29T07:52:28.595Z,96.60
2022-07-29T07:54:59.030Z,96.87
2022-07-29T07:57:28.994Z,96.56
2022-07-29T07:59:59.707Z,96.51
2022-07-29T08:02:30.174Z,96.34
2022-07-29T08:05:01.713Z,95.55
2022-07-29T08:07:31.880Z,95.53
2022-07-29T08:10:02.182Z,96.10
2022-07-29T08:12:32.448Z,96.14
2022-07-29T08:15:02.759Z,95.84
2022-07-29T08:17:35.370Z,96.54
2022-07-29T08:20:06.747Z,96.63
2022-07-29T08:22:36.955Z,96.03
2022-07-29T08:25:08.262Z,95.94
2022-07-29T08:27:43.710Z,96.62
2022-07-29T08:30:14.626Z,96.99
2022-07-29T08:32:53.851Z,97.22
2022-07-29T08:35:26.526Z,97.52
2022-07-29T08:37:58.893Z,97.91
2022-07-29T08:40:32.553Z,98.22
2022-07-29T08:43:09.283Z,99.12
2022-07-29T08:45:48.997Z,99.53
2022-07-29T08:48:24.421Z,99.61
2022-07-29T08:51:00.514Z,99.99
2022-07-29T08:53:31.652Z,99.99
2022-07-29T08:56:04.111Z,99.99
2022-07-29T08:58:38.311Z,99.99
2022-07-29T09:01:12.491Z,99.99
2022-07-29T09:03:45.754Z,99.99
2022-07-29T09:06:20.280Z,99.99
2022-07-29T09:08:51.391Z,99.57
2022-07-29T09:11:21.956Z,98.17
2022-07-29T09:13:52.130Z,99.13
2022-07-29T09:16:43.867Z,99.28
2022-07-29T09:19:30.053Z,98.42
2022-07-29T09:22:03.991Z,98.47
2022-07-29T09:24:47.524Z,98.60
2022-07-29T09:27:22.627Z,98.50
2022-07-29T09:30:03.101Z,98.13
2022-07-29T09:32:56.368Z,98.11
2022-07-29T09:35:28.599Z,97.98
2022-07-29T09:37:59.323Z,98.70
2022-07-29T09:40:31.041Z,99.03
2022-07-29T09:43:13.080Z,99.23
2022-07-29T09:45:43.273Z,99.48
2022-07-29T09:48:27.597Z,99.93
2022-07-29T09:51:00.278Z,99.87
2022-07-29T09:53:35.605Z,99.99
2022-07-29T09:56:06.994Z,99.88
2022-07-29T09:58:37.193Z,99.85
2022-07-29T10:01:07.493Z,99.99
2022-07-29T10:03:56.458Z,99.99
2022-07-29T10:06:26.731Z,99.99
2022-07-29T10:08:56.744Z,99.99
2022-07-29T10:11:27.596Z,99.99
2022-07-29T10:14:19.216Z,99.99
2022-07-29T10:16:49.867Z,99.23
2022-07-29T10:19:20.084Z,97.78
2022-07-29T10:21:54.951Z,98.99
2022-07-29T10:24:32.951Z,98.73
2022-07-29T10:27:04.324Z,99.11
2022-07-29T10:29:34.859Z,99.33
2022-07-29T10:32:34.060Z,99.80
2022-07-29T10:35:14.222Z,99.99
2022-07-29T10:38:31.905Z,99.99
2022-07-29T10:41:44.329Z,99.99
2022-07-29T10:44:23.013Z,99.99
2022-07-29T10:46:55.683Z,99.99
2022-07-29T10:49:30.606Z,99.99
2022-07-29T10:52:03.551Z,99.99
2022-07-29T10:54:42.476Z,99.99
2022-07-29T10:57:53.692Z,99.99
2022-07-29T11:00:29.257Z,99.99
2022-07-29T11:03:04.706Z,99.72
2022-07-29T11:05:59.388Z,99.24
2022-07-29T11:08:32.941Z,99.48
2022-07-29T11:11:22.130Z,98.78
2022-07-29T11:13:55.359Z,97.89
2022-07-29T11:16:26.194Z,96.54
2022-07-29T11:19:14.751Z,94.60
2022-07-29T11:21:54.322Z,93.88
2022-07-29T11:24:30.485Z,93.46
2022-07-29T11:30:09.178Z,90.06
2022-07-29T11:32:48.587Z,90.09
2022-07-29T11:38:32.074Z,89.77
2022-07-29T11:41:31.896Z,90.04
2022-07-29T11:44:03.124Z,88.96
2022-07-29T11:46:53.990Z,88.79
2022-07-29T11:52:17.562Z,88.68
2022-07-29T11:54:58.244Z,88.76
2022-07-29T11:57:37.409Z,88.73
2022-07-29T12:00:14.701Z,88.93
2022-07-29T12:02:49.106Z,87.13
2022-07-29T12:05:22.157Z,87.18
2022-07-29T12:07:03.248Z,91.03
2022-07-29T12:08:23.956Z,87.19
2022-07-29T12:10:55.070Z,86.90
2022-07-29T12:13:37.515Z,86.37
2022-07-29T12:16:08.244Z,86.92
2022-07-29T12:18:38.098Z,86.09
2022-07-29T12:21:12.339Z,87.29
2022-07-29T12:24:05.961Z,87.97
2022-07-29T12:26:56.147Z,86.86
2022-07-29T12:29:34.459Z,86.30
2022-07-29T12:32:14.667Z,86.88
2022-07-29T12:34:45.842Z,87.86
2022-07-29T12:37:16.025Z,86.29
2022-07-29T12:39:46.379Z,85.38
2022-07-29T12:42:18.737Z,84.12
2022-07-29T12:44:53.701Z,87.23
2022-07-29T12:47:24.380Z,85.91
2022-07-29T12:50:13.870Z,83.01
2022-07-29T12:52:44.633Z,83.36
2022-07-29T12:55:15.019Z,82.73
2022-07-29T12:57:54.475Z,81.90
2022-07-29T13:00:27.128Z,81.81
2022-07-29T13:03:00.784Z,82.27
2022-07-29T13:05:49.620Z,81.47
2022-07-29T13:08:23.659Z,80.58
2022-07-29T13:10:53.827Z,80.81
2022-07-29T13:13:24.202Z,80.30
2022-07-29T13:16:10.131Z,80.57
2022-07-29T13:18:41.029Z,80.04
2022-07-29T13:21:16.604Z,78.20
2022-07-29T13:23:49.145Z,77.86
2022-07-29T13:26:21.793Z,77.21
2022-07-29T13:28:52.685Z,78.36
2022-07-29T13:31:24.188Z,78.14
2022-07-29T13:33:54.622Z,78.87
2022-07-29T13:36:25.140Z,78.28
2022-07-29T13:38:55.994Z,77.68
2022-07-29T13:41:26.165Z,78.23
2022-07-29T13:43:56.125Z,77.45
2022-07-29T13:46:26.878Z,75.64
2022-07-29T13:48:57.467Z,76.72
2022-07-29T13:51:27.444Z,77.30
2022-07-29T13:53:57.830Z,76.90
2022-07-29T13:56:28.516Z,77.65
2022-07-29T13:58:59.423Z,78.39
2022-07-29T14:01:29.913Z,74.81
2022-07-29T14:04:00.667Z,76.24
2022-07-29T14:06:31.907Z,74.84
2022-07-29T14:09:02.023Z,74.28
2022-07-29T14:11:31.946Z,75.26
2022-07-29T14:14:02.330Z,75.71
2022-07-29T14:16:32.462Z,73.01
2022-07-29T14:19:03.116Z,71.54
2022-07-29T14:21:33.404Z,73.01
2022-07-29T14:24:03.599Z,73.81
2022-07-29T14:26:50.283Z,69.92
2022-07-29T14:29:21.094Z,69.32
2022-07-29T14:31:51.646Z,68.67
2022-07-29T14:34:21.849Z,67.57
2022-07-29T14:36:52.066Z,71.82
2022-07-29T14:39:22.317Z,70.09
2022-07-29T14:41:53.495Z,68.60
2022-07-29T14:44:23.706Z,67.94
2022-07-29T14:46:53.599Z,67.34
2022-07-29T14:49:24.018Z,65.61
2022-07-29T14:51:54.736Z,65.04
2022-07-29T14:54:25.446Z,65.29
2022-07-29T14:56:59.155Z,62.65
2022-07-29T14:59:29.485Z,63.93
2022-07-29T15:01:59.734Z,63.29
2022-07-29T15:04:30.876Z,64.08
2022-07-29T15:07:01.312Z,64.63
2022-07-29T15:09:31.323Z,63.71
2022-07-29T15:12:01.944Z,61.94
2022-07-29T15:14:33.835Z,61.61
2022-07-29T15:17:05.569Z,61.98
2022-07-29T15:19:36.405Z,62.80
2022-07-29T15:22:09.583Z,63.26
2022-07-29T15:24:39.966Z,63.18
2022-07-29T15:27:16.103Z,63.45
2022-07-29T15:29:47.428Z,64.21
2022-07-29T15:32:17.725Z,63.19
2022-07-29T15:34:47.760Z,63.10
2022-07-29T15:37:18.356Z,62.52
2022-07-29T15:39:48.414Z,61.99
2022-07-29T15:42:18.653Z,61.98
2022-07-29T15:44:48.712Z,62.95
2022-07-29T15:47:19.376Z,64.01
2022-07-29T15:49:49.612Z,61.83
2022-07-29T15:52:24.963Z,62.47
2022-07-29T15:54:59.095Z,61.34
2022-07-29T15:57:29.148Z,63.74
2022-07-29T15:59:59.549Z,61.15
2022-07-29T16:02:30.209Z,63.06
2022-07-29T16:05:00.208Z,61.23
2022-07-29T16:07:31.323Z,64.58
2022-07-29T16:10:03.128Z,65.69
2022-07-29T16:12:33.401Z,65.80
2022-07-29T16:15:09.074Z,65.24
2022-07-29T16:17:40.772Z,65.74
2022-07-29T16:20:11.156Z,66.07
2022-07-29T16:22:44.824Z,68.85
2022-07-29T16:25:15.183Z,71.47
2022-07-29T16:27:45.541Z,72.55
2022-07-29T16:30:15.504Z,70.49
2022-07-29T16:32:46.018Z,67.38
2022-07-29T16:35:16.807Z,66.19
2022-07-29T16:37:46.716Z,67.08
2022-07-29T16:40:16.858Z,66.74
2022-07-29T16:42:47.519Z,67.97
2022-07-29T16:45:21.244Z,69.35
2022-07-29T16:47:51.714Z,70.77
2022-07-29T16:50:22.972Z,70.92
2022-07-29T16:52:53.432Z,67.93
2022-07-29T16:55:24.524Z,67.79
2022-07-29T16:57:54.734Z,67.83
2022-07-29T17:00:25.162Z,66.64
2022-07-29T17:02:55.690Z,66.65
2022-07-29T17:05:26.163Z,69.89
2022-07-29T17:07:57.339Z,71.58
2022-07-29T17:10:29.496Z,71.83
2022-07-29T17:13:00.098Z,67.37
2022-07-29T17:15:30.658Z,67.35
2022-07-29T17:18:12.293Z,65.77
2022-07-29T17:20:43.559Z,65.24
2022-07-29T17:23:13.815Z,68.04
2022-07-29T17:25:44.316Z,67.30
2022-07-29T17:28:14.179Z,66.39
2022-07-29T17:30:44.324Z,65.85
2022-07-29T17:33:14.361Z,65.08
2022-07-29T17:36:03.235Z,66.07
2022-07-29T17:38:33.762Z,65.75
2022-07-29T17:41:07.665Z,65.71
2022-07-29T17:43:40.549Z,66.27
2022-07-29T17:46:11.276Z,67.50
2022-07-29T17:48:42.383Z,67.09
2022-07-29T17:51:13.232Z,66.91
2022-07-29T17:53:43.912Z,66.82
2022-07-29T17:56:15.292Z,66.47
2022-07-29T17:58:48.577Z,66.41
2022-07-29T18:01:19.604Z,66.78
2022-07-29T18:03:49.992Z,67.01
2022-07-29T18:06:20.413Z,65.94
2022-07-29T18:08:50.947Z,67.42
2022-07-29T18:11:21.217Z,70.20
2022-07-29T18:13:51.325Z,72.21
2022-07-29T18:16:22.188Z,73.16
2022-07-29T18:18:53.307Z,74.13
2022-07-29T18:21:44.348Z,75.31
2022-07-29T18:24:13.596Z,72.54
2022-07-29T18:26:43.951Z,74.08
2022-07-29T18:29:14.489Z,72.76
2022-07-29T18:31:44.520Z,71.98
2022-07-29T18:34:14.670Z,72.37
2022-07-29T18:36:44.787Z,74.15
2022-07-29T18:39:21.284Z,74.45
2022-07-29T18:41:52.570Z,70.64
2022-07-29T18:44:23.215Z,69.97
2022-07-29T18:46:53.820Z,68.41
2022-07-29T18:49:25.213Z,67.39
2022-07-29T18:51:55.904Z,68.16
2022-07-29T18:54:26.195Z,68.13
2022-07-29T18:56:56.515Z,68.10
2022-07-29T18:59:26.935Z,67.80
2022-07-29T19:01:57.363Z,67.27
2022-07-29T19:04:28.095Z,68.61
2022-07-29T19:07:00.383Z,67.26
2022-07-29T19:09:31.637Z,67.93
2022-07-29T19:12:03.757Z,68.75
2022-07-29T19:14:34.661Z,69.58
2022-07-29T19:17:04.835Z,70.30
2022-07-29T19:19:34.994Z,70.24
2022-07-29T19:22:05.438Z,70.77
2022-07-29T19:24:35.917Z,71.54
2022-07-29T19:27:06.030Z,71.96
2022-07-29T19:29:36.556Z,72.09
2022-07-29T19:32:07.927Z,71.05
2022-07-29T19:34:38.736Z,71.06
2022-07-29T19:37:08.688Z,71.37
2022-07-29T19:39:38.961Z,71.11
2022-07-29T19:42:09.750Z,71.35
2022-07-29T19:44:40.257Z,71.64
2022-07-29T19:47:10.160Z,71.26
2022-07-29T19:49:47.473Z,71.52
2022-07-29T19:52:17.862Z,72.37
2022-07-29T19:54:48.446Z,72.80
2022-07-29T19:57:18.453Z,73.56
2022-07-29T19:59:48.493Z,74.18
2022-07-29T20:02:20.464Z,74.29
2022-07-29T20:04:50.895Z,74.97
2022-07-29T20:07:21.480Z,74.08
2022-07-29T20:09:51.475Z,73.85
2022-07-29T20:12:21.953Z,74.63
2022-07-29T20:14:53.280Z,74.12
2022-07-29T20:17:26.110Z,73.71
2022-07-29T20:19:58.160Z,75.10
2022-07-29T20:22:29.125Z,75.01
2022-07-29T20:25:00.020Z,77.20
2022-07-29T20:27:30.633Z,76.75
2022-07-29T20:30:00.544Z,76.51
2022-07-29T20:32:31.128Z,76.71
2022-07-29T20:35:01.667Z,77.61
2022-07-29T20:37:31.554Z,78.12
2022-07-29T20:40:01.836Z,78.37
2022-07-29T20:42:32.034Z,79.04
2022-07-29T20:45:05.593Z,79.60
2022-07-29T20:47:38.662Z,80.97
2022-07-29T20:50:11.081Z,81.77
2022-07-29T20:52:42.398Z,83.67
2022-07-29T20:55:13.529Z,85.05
2022-07-29T20:57:44.387Z,85.76
2022-07-29T21:00:17.291Z,86.56
2022-07-29T21:02:48.495Z,87.45
2022-07-29T21:05:19.031Z,87.90
2022-07-29T21:07:49.877Z,88.05
2022-07-29T21:10:20.001Z,88.95
2022-07-29T21:12:50.621Z,89.41
2022-07-29T21:15:21.911Z,89.98
2022-07-29T21:18:00.650Z,90.55
2022-07-29T21:20:32.267Z,90.99
2022-07-29T21:23:02.410Z,91.53
2022-07-29T21:25:32.286Z,91.82
2022-07-29T21:28:21.198Z,92.23
2022-07-29T21:30:51.803Z,92.58
2022-07-29T21:33:21.934Z,93.26
2022-07-29T21:36:20.257Z,93.71
2022-07-29T21:38:42.973Z,93.85
2022-07-29T21:41:13.870Z,94.21
2022-07-29T21:43:44.622Z,94.75
2022-07-29T21:46:17.658Z,94.78
2022-07-29T21:48:48.189Z,95.02
2022-07-29T21:51:18.591Z,95.51
2022-07-29T21:53:48.990Z,95.45
2022-07-29T21:56:19.332Z,95.61
2022-07-29T21:58:51.364Z,96.02
2022-07-29T22:01:21.705Z,96.28
2022-07-29T22:03:52.465Z,96.28
2022-07-29T22:06:22.942Z,96.39
2022-07-29T22:08:53.093Z,96.52
2022-07-29T22:11:23.541Z,96.68
2022-07-29T22:13:54.146Z,97.00
2022-07-29T22:16:25.016Z,97.42
2022-07-29T22:18:55.215Z,97.60
2022-07-29T22:21:25.276Z,97.36
2022-07-29T22:23:56.094Z,97.36
2022-07-29T22:26:26.662Z,97.73
2022-07-29T22:28:56.547Z,97.98
2022-07-29T22:31:26.783Z,97.71
2022-07-29T22:33:56.649Z,97.99
2022-07-29T22:36:28.230Z,98.10
2022-07-29T22:38:59.011Z,98.27
2022-07-29T22:41:31.031Z,98.61
2022-07-29T22:44:01.463Z,98.79
2022-07-29T22:46:31.937Z,98.84
2022-07-29T22:49:02.866Z,98.58
2022-07-29T22:51:33.683Z,98.33
2022-07-29T22:54:04.420Z,98.95
2022-07-29T22:56:34.842Z,99.18
2022-07-29T22:59:05.344Z,99.31
2022-07-29T23:01:38.192Z,99.56
2022-07-29T23:04:09.097Z,99.87
2022-07-29T23:06:39.623Z,99.94
2022-07-29T23:09:09.947Z,99.87
2022-07-29T23:11:40.767Z,99.74
2022-07-29T23:14:10.690Z,99.44
2022-07-29T23:16:41.063Z,99.58
2022-07-29T23:19:11.480Z,99.91
2022-07-29T23:21:42.187Z,99.99
2022-07-29T23:24:12.081Z,99.99
2022-07-29T23:26:42.353Z,99.99
2022-07-29T23:29:12.741Z,99.99
2022-07-29T23:31:48.275Z,99.99
2022-07-29T23:34:18.879Z,99.99
2022-07-29T23:36:48.748Z,99.99
2022-07-29T23:39:19.282Z,99.99
2022-07-29T23:41:49.779Z,99.99
2022-07-29T23:44:20.085Z,99.99
2022-07-29T23:46:50.057Z,99.99
2022-07-29T23:49:20.657Z,99.99
2022-07-29T23:51:51.121Z,99.99
2022-07-29T23:54:21.421Z,99.99
2022-07-29T23:56:51.353Z,99.99
2022-07-29T23:59:22.041Z,99.99
